sensor_id;sensor_type;location;lat;lon;timestamp;temperature;humidity
2973;DHT22;1496;51.404;7.232;2023-03-05T00:01:32;4.70;99.90
2973;DHT22;1496;51.404;7.232;2023-03-05T00:03:59;4.70;99.90
2973;DHT22;1496;51.404;7.232;2023-03-05T00:06:27;4.70;99.90
2973;DHT22;1496;51.404;7.232;2023-03-05T00:08:53;4.70;99.90
2973;DHT22;1496;51.404;7.232;2023-03-05T00:11:21;4.90;99.90
2973;DHT22;1496;51.404;7.232;2023-03-05T00:13:47;4.90;99.90
2973;DHT22;1496;51.404;7.232;2023-03-05T00:16:15;5.00;99.90
2973;DHT22;1496;51.404;7.232;2023-03-05T00:18:41;5.00;99.90
2973;DHT22;1496;51.404;7.232;2023-03-05T00:21:26;4.70;99.90
2973;DHT22;1496;51.404;7.232;2023-03-05T00:23:53;4.70;99.90
2973;DHT22;1496;51.404;7.232;2023-03-05T00:26:21;4.60;99.90
2973;DHT22;1496;51.404;7.232;2023-03-05T00:28:47;4.60;99.90
2973;DHT22;1496;51.404;7.232;2023-03-05T00:31:16;4.60;99.90
2973;DHT22;1496;51.404;7.232;2023-03-05T00:33:42;4.60;99.90
2973;DHT22;1496;51.404;7.232;2023-03-05T00:36:09;4.70;99.90
2973;DHT22;1496;51.404;7.232;2023-03-05T00:38:34;4.70;99.90
2973;DHT22;1496;51.404;7.232;2023-03-05T00:41:00;4.60;99.90
2973;DHT22;1496;51.404;7.232;2023-03-05T00:43:27;4.40;99.90
2973;DHT22;1496;51.404;7.232;2023-03-05T00:45:53;4.40;99.90
2973;DHT22;1496;51.404;7.232;2023-03-05T00:48:18;4.40;99.90
2973;DHT22;1496;51.404;7.232;2023-03-05T00:50:44;4.50;99.90
2973;DHT22;1496;51.404;7.232;2023-03-05T00:53:10;4.40;99.90
2973;DHT22;1496;51.404;7.232;2023-03-05T00:55:36;4.40;99.90
2973;DHT22;1496;51.404;7.232;2023-03-05T00:58:02;4.30;99.90
2973;DHT22;1496;51.404;7.232;2023-03-05T01:00:28;4.30;99.90
2973;DHT22;1496;51.404;7.232;2023-03-05T01:02:53;4.30;99.90
2973;DHT22;1496;51.404;7.232;2023-03-05T01:05:19;4.30;99.90
2973;DHT22;1496;51.404;7.232;2023-03-05T01:07:45;4.20;99.90
2973;DHT22;1496;51.404;7.232;2023-03-05T01:10:11;4.20;99.90
2973;DHT22;1496;51.404;7.232;2023-03-05T01:12:38;4.40;99.90
2973;DHT22;1496;51.404;7.232;2023-03-05T01:15:04;4.40;99.90
2973;DHT22;1496;51.404;7.232;2023-03-05T01:17:30;4.40;99.90
2973;DHT22;1496;51.404;7.232;2023-03-05T01:19:56;4.30;99.90
2973;DHT22;1496;51.404;7.232;2023-03-05T01:22:22;4.40;99.90
2973;DHT22;1496;51.404;7.232;2023-03-05T01:24:47;4.30;99.90
2973;DHT22;1496;51.404;7.232;2023-03-05T01:27:13;4.30;99.90
2973;DHT22;1496;51.404;7.232;2023-03-05T01:29:39;4.20;99.90
2973;DHT22;1496;51.404;7.232;2023-03-05T01:32:05;4.20;99.90
2973;DHT22;1496;51.404;7.232;2023-03-05T01:34:31;4.20;99.90
2973;DHT22;1496;51.404;7.232;2023-03-05T01:36:56;4.20;99.90
2973;DHT22;1496;51.404;7.232;2023-03-05T01:39:22;4.20;99.90
2973;DHT22;1496;51.404;7.232;2023-03-05T01:41:51;4.10;99.90
2973;DHT22;1496;51.404;7.232;2023-03-05T01:44:22;4.10;99.90
2973;DHT22;1496;51.404;7.232;2023-03-05T01:46:48;4.20;99.90
2973;DHT22;1496;51.404;7.232;2023-03-05T01:49:23;4.20;99.90
2973;DHT22;1496;51.404;7.232;2023-03-05T01:54:32;4.10;99.90
2973;DHT22;1496;51.404;7.232;2023-03-05T01:57:01;4.10;99.90
2973;DHT22;1496;51.404;7.232;2023-03-05T01:59:29;4.00;99.90
2973;DHT22;1496;51.404;7.232;2023-03-05T02:01:56;3.90;99.90
2973;DHT22;1496;51.404;7.232;2023-03-05T02:04:28;3.90;99.90
2973;DHT22;1496;51.404;7.232;2023-03-05T02:06:55;4.00;99.90
2973;DHT22;1496;51.404;7.232;2023-03-05T02:09:21;4.00;99.90
2973;DHT22;1496;51.404;7.232;2023-03-05T02:11:49;3.90;99.90
2973;DHT22;1496;51.404;7.232;2023-03-05T02:14:15;4.00;99.90
2973;DHT22;1496;51.404;7.232;2023-03-05T02:16:41;4.00;99.90
2973;DHT22;1496;51.404;7.232;2023-03-05T02:19:09;3.90;99.90
2973;DHT22;1496;51.404;7.232;2023-03-05T02:21:46;3.90;99.90
2973;DHT22;1496;51.404;7.232;2023-03-05T02:24:30;3.80;99.90
2973;DHT22;1496;51.404;7.232;2023-03-05T02:26:56;4.00;99.90
2973;DHT22;1496;51.404;7.232;2023-03-05T02:29:22;3.80;99.90
2973;DHT22;1496;51.404;7.232;2023-03-05T02:31:48;3.80;99.90
2973;DHT22;1496;51.404;7.232;2023-03-05T02:34:13;3.80;99.90
2973;DHT22;1496;51.404;7.232;2023-03-05T02:36:39;3.80;99.90
2973;DHT22;1496;51.404;7.232;2023-03-05T02:39:05;3.80;99.90
2973;DHT22;1496;51.404;7.232;2023-03-05T02:41:31;3.90;99.90
2973;DHT22;1496;51.404;7.232;2023-03-05T02:43:57;3.90;99.90
2973;DHT22;1496;51.404;7.232;2023-03-05T02:46:24;3.80;99.90
2973;DHT22;1496;51.404;7.232;2023-03-05T02:48:49;3.80;99.90
2973;DHT22;1496;51.404;7.232;2023-03-05T02:51:15;3.80;99.90
2973;DHT22;1496;51.404;7.232;2023-03-05T02:53:43;3.80;99.90
2973;DHT22;1496;51.404;7.232;2023-03-05T02:56:09;3.90;99.90
2973;DHT22;1496;51.404;7.232;2023-03-05T02:58:34;3.80;99.90
2973;DHT22;1496;51.404;7.232;2023-03-05T03:01:00;3.80;99.90
2973;DHT22;1496;51.404;7.232;2023-03-05T03:03:26;3.80;99.90
2973;DHT22;1496;51.404;7.232;2023-03-05T03:05:51;3.90;99.90
2973;DHT22;1496;51.404;7.232;2023-03-05T03:08:17;3.90;99.90
2973;DHT22;1496;51.404;7.232;2023-03-05T03:10:43;3.80;99.90
2973;DHT22;1496;51.404;7.232;2023-03-05T03:13:09;3.80;99.90
2973;DHT22;1496;51.404;7.232;2023-03-05T03:15:34;3.80;99.90
2973;DHT22;1496;51.404;7.232;2023-03-05T03:18:02;3.70;99.90
2973;DHT22;1496;51.404;7.232;2023-03-05T03:20:28;3.80;99.90
2973;DHT22;1496;51.404;7.232;2023-03-05T03:22:53;3.70;99.90
2973;DHT22;1496;51.404;7.232;2023-03-05T03:25:20;3.60;99.90
2973;DHT22;1496;51.404;7.232;2023-03-05T03:27:50;3.50;99.90
2973;DHT22;1496;51.404;7.232;2023-03-05T03:30:16;3.60;99.90
2973;DHT22;1496;51.404;7.232;2023-03-05T03:32:42;3.70;99.90
2973;DHT22;1496;51.404;7.232;2023-03-05T03:35:08;3.60;99.90
2973;DHT22;1496;51.404;7.232;2023-03-05T03:37:34;3.50;99.90
2973;DHT22;1496;51.404;7.232;2023-03-05T03:40:00;3.50;99.90
2973;DHT22;1496;51.404;7.232;2023-03-05T03:42:26;3.50;99.90
2973;DHT22;1496;51.404;7.232;2023-03-05T03:44:51;3.50;99.90
2973;DHT22;1496;51.404;7.232;2023-03-05T03:47:17;3.50;99.90
2973;DHT22;1496;51.404;7.232;2023-03-05T03:49:43;3.50;99.90
2973;DHT22;1496;51.404;7.232;2023-03-05T03:52:09;3.50;99.90
2973;DHT22;1496;51.404;7.232;2023-03-05T03:54:35;3.60;99.90
2973;DHT22;1496;51.404;7.232;2023-03-05T03:57:00;3.60;99.90
2973;DHT22;1496;51.404;7.232;2023-03-05T03:59:26;3.60;99.90
2973;DHT22;1496;51.404;7.232;2023-03-05T04:01:52;3.50;99.90
2973;DHT22;1496;51.404;7.232;2023-03-05T04:04:17;3.60;99.90
2973;DHT22;1496;51.404;7.232;2023-03-05T04:06:43;3.50;99.90
2973;DHT22;1496;51.404;7.232;2023-03-05T04:09:09;3.60;99.90
2973;DHT22;1496;51.404;7.232;2023-03-05T04:11:36;3.60;99.90
2973;DHT22;1496;51.404;7.232;2023-03-05T04:14:02;3.60;99.90
2973;DHT22;1496;51.404;7.232;2023-03-05T04:16:28;3.50;99.90
2973;DHT22;1496;51.404;7.232;2023-03-05T04:18:53;3.50;99.90
2973;DHT22;1496;51.404;7.232;2023-03-05T04:21:19;3.40;99.90
2973;DHT22;1496;51.404;7.232;2023-03-05T04:23:45;3.40;99.90
2973;DHT22;1496;51.404;7.232;2023-03-05T04:26:11;3.50;99.90
2973;DHT22;1496;51.404;7.232;2023-03-05T04:28:37;3.50;99.90
2973;DHT22;1496;51.404;7.232;2023-03-05T04:31:03;3.50;99.90
2973;DHT22;1496;51.404;7.232;2023-03-05T04:33:29;3.50;99.90
2973;DHT22;1496;51.404;7.232;2023-03-05T04:35:55;3.40;99.90
2973;DHT22;1496;51.404;7.232;2023-03-05T04:38:21;3.40;99.90
2973;DHT22;1496;51.404;7.232;2023-03-05T04:40:47;3.40;99.90
2973;DHT22;1496;51.404;7.232;2023-03-05T04:43:12;3.40;99.90
2973;DHT22;1496;51.404;7.232;2023-03-05T04:45:42;3.40;99.90
2973;DHT22;1496;51.404;7.232;2023-03-05T04:48:09;3.40;99.90
2973;DHT22;1496;51.404;7.232;2023-03-05T04:50:35;3.40;99.90
2973;DHT22;1496;51.404;7.232;2023-03-05T04:53:01;3.40;99.90
2973;DHT22;1496;51.404;7.232;2023-03-05T04:55:27;3.50;99.90
2973;DHT22;1496;51.404;7.232;2023-03-05T04:57:52;3.40;99.90
2973;DHT22;1496;51.404;7.232;2023-03-05T05:00:19;3.40;99.90
2973;DHT22;1496;51.404;7.232;2023-03-05T05:02:46;3.40;99.90
2973;DHT22;1496;51.404;7.232;2023-03-05T05:05:14;3.30;99.90
2973;DHT22;1496;51.404;7.232;2023-03-05T05:07:40;3.20;99.90
2973;DHT22;1496;51.404;7.232;2023-03-05T05:10:08;3.30;99.90
2973;DHT22;1496;51.404;7.232;2023-03-05T05:12:34;3.20;99.90
2973;DHT22;1496;51.404;7.232;2023-03-05T05:15:00;3.20;99.90
2973;DHT22;1496;51.404;7.232;2023-03-05T05:17:26;3.20;99.90
2973;DHT22;1496;51.404;7.232;2023-03-05T05:19:55;3.20;99.90
2973;DHT22;1496;51.404;7.232;2023-03-05T05:22:21;3.20;99.90
2973;DHT22;1496;51.404;7.232;2023-03-05T05:24:47;3.20;99.90
2973;DHT22;1496;51.404;7.232;2023-03-05T05:27:13;3.30;99.90
2973;DHT22;1496;51.404;7.232;2023-03-05T05:29:38;3.20;99.90
2973;DHT22;1496;51.404;7.232;2023-03-05T05:32:04;3.20;99.90
2973;DHT22;1496;51.404;7.232;2023-03-05T05:34:30;3.10;99.90
2973;DHT22;1496;51.404;7.232;2023-03-05T05:36:56;3.10;99.90
2973;DHT22;1496;51.404;7.232;2023-03-05T05:39:21;3.10;99.90
2973;DHT22;1496;51.404;7.232;2023-03-05T05:41:51;3.20;99.90
2973;DHT22;1496;51.404;7.232;2023-03-05T05:44:17;3.20;99.90
2973;DHT22;1496;51.404;7.232;2023-03-05T05:46:43;3.20;99.90
2973;DHT22;1496;51.404;7.232;2023-03-05T05:49:09;3.10;99.90
2973;DHT22;1496;51.404;7.232;2023-03-05T05:51:34;3.20;99.90
2973;DHT22;1496;51.404;7.232;2023-03-05T05:54:00;3.20;99.90
2973;DHT22;1496;51.404;7.232;2023-03-05T05:56:26;3.20;99.90
2973;DHT22;1496;51.404;7.232;2023-03-05T05:58:52;3.20;99.90
2973;DHT22;1496;51.404;7.232;2023-03-05T06:01:24;3.10;99.90
2973;DHT22;1496;51.404;7.232;2023-03-05T06:03:50;3.20;99.90
2973;DHT22;1496;51.404;7.232;2023-03-05T06:06:18;3.30;99.90
2973;DHT22;1496;51.404;7.232;2023-03-05T06:08:43;3.30;99.90
2973;DHT22;1496;51.404;7.232;2023-03-05T06:11:09;3.20;99.90
2973;DHT22;1496;51.404;7.232;2023-03-05T06:13:36;3.20;99.90
2973;DHT22;1496;51.404;7.232;2023-03-05T06:16:05;3.20;99.90
2973;DHT22;1496;51.404;7.232;2023-03-05T06:18:32;3.20;99.90
2973;DHT22;1496;51.404;7.232;2023-03-05T06:21:10;3.20;99.90
2973;DHT22;1496;51.404;7.232;2023-03-05T06:23:36;3.20;99.90
2973;DHT22;1496;51.404;7.232;2023-03-05T06:26:04;3.20;99.90
2973;DHT22;1496;51.404;7.232;2023-03-05T06:28:31;3.20;99.90
2973;DHT22;1496;51.404;7.232;2023-03-05T06:31:09;3.20;99.90
2973;DHT22;1496;51.404;7.232;2023-03-05T06:33:36;3.20;99.90
2973;DHT22;1496;51.404;7.232;2023-03-05T06:36:04;3.10;99.90
2973;DHT22;1496;51.404;7.232;2023-03-05T06:38:30;3.10;99.90
2973;DHT22;1496;51.404;7.232;2023-03-05T06:41:00;3.10;99.90
2973;DHT22;1496;51.404;7.232;2023-03-05T06:43:26;3.10;99.90
2973;DHT22;1496;51.404;7.232;2023-03-05T06:46:15;3.20;99.90
2973;DHT22;1496;51.404;7.232;2023-03-05T06:48:41;3.10;99.90
2973;DHT22;1496;51.404;7.232;2023-03-05T06:51:18;3.20;99.90
2973;DHT22;1496;51.404;7.232;2023-03-05T06:53:45;3.10;99.90
2973;DHT22;1496;51.404;7.232;2023-03-05T06:56:11;3.10;99.90
2973;DHT22;1496;51.404;7.232;2023-03-05T06:58:39;3.10;99.90
2973;DHT22;1496;51.404;7.232;2023-03-05T07:01:05;3.10;99.90
2973;DHT22;1496;51.404;7.232;2023-03-05T07:03:32;3.10;99.90
2973;DHT22;1496;51.404;7.232;2023-03-05T07:06:02;3.10;99.90
2973;DHT22;1496;51.404;7.232;2023-03-05T07:08:28;3.10;99.90
2973;DHT22;1496;51.404;7.232;2023-03-05T07:10:53;3.10;99.90
2973;DHT22;1496;51.404;7.232;2023-03-05T07:13:19;3.20;99.90
2973;DHT22;1496;51.404;7.232;2023-03-05T07:15:46;3.10;99.90
2973;DHT22;1496;51.404;7.232;2023-03-05T07:18:11;3.10;99.90
2973;DHT22;1496;51.404;7.232;2023-03-05T07:20:37;3.10;99.90
2973;DHT22;1496;51.404;7.232;2023-03-05T07:23:03;3.10;99.90
2973;DHT22;1496;51.404;7.232;2023-03-05T07:25:29;3.10;99.90
2973;DHT22;1496;51.404;7.232;2023-03-05T07:27:55;3.20;99.90
2973;DHT22;1496;51.404;7.232;2023-03-05T07:30:20;3.20;99.90
2973;DHT22;1496;51.404;7.232;2023-03-05T07:32:46;3.10;99.90
2973;DHT22;1496;51.404;7.232;2023-03-05T07:35:12;3.10;99.90
2973;DHT22;1496;51.404;7.232;2023-03-05T07:37:38;3.20;99.90
2973;DHT22;1496;51.404;7.232;2023-03-05T07:40:04;3.20;99.90
2973;DHT22;1496;51.404;7.232;2023-03-05T07:42:31;3.20;99.90
2973;DHT22;1496;51.404;7.232;2023-03-05T07:45:09;3.30;99.90
2973;DHT22;1496;51.404;7.232;2023-03-05T07:47:35;3.30;99.90
2973;DHT22;1496;51.404;7.232;2023-03-05T07:50:01;3.40;99.90
2973;DHT22;1496;51.404;7.232;2023-03-05T07:52:27;3.40;99.90
2973;DHT22;1496;51.404;7.232;2023-03-05T07:54:53;3.30;99.90
2973;DHT22;1496;51.404;7.232;2023-03-05T07:57:19;3.30;99.90
2973;DHT22;1496;51.404;7.232;2023-03-05T07:59:44;3.40;99.90
2973;DHT22;1496;51.404;7.232;2023-03-05T08:02:11;3.40;99.90
2973;DHT22;1496;51.404;7.232;2023-03-05T08:04:37;3.50;99.90
2973;DHT22;1496;51.404;7.232;2023-03-05T08:07:03;3.60;99.90
2973;DHT22;1496;51.404;7.232;2023-03-05T08:09:29;3.60;99.90
2973;DHT22;1496;51.404;7.232;2023-03-05T08:11:55;3.60;99.90
2973;DHT22;1496;51.404;7.232;2023-03-05T08:14:21;3.70;99.90
2973;DHT22;1496;51.404;7.232;2023-03-05T08:16:47;3.80;99.90
2973;DHT22;1496;51.404;7.232;2023-03-05T08:19:17;3.70;99.90
2973;DHT22;1496;51.404;7.232;2023-03-05T08:21:44;3.80;99.90
2973;DHT22;1496;51.404;7.232;2023-03-05T08:24:11;3.80;99.90
2973;DHT22;1496;51.404;7.232;2023-03-05T08:26:37;3.80;99.90
2973;DHT22;1496;51.404;7.232;2023-03-05T08:29:04;3.90;99.90
2973;DHT22;1496;51.404;7.232;2023-03-05T08:31:30;3.80;99.90
2973;DHT22;1496;51.404;7.232;2023-03-05T08:33:58;3.60;99.90
2973;DHT22;1496;51.404;7.232;2023-03-05T08:36:24;3.50;99.90
2973;DHT22;1496;51.404;7.232;2023-03-05T08:38:49;3.40;99.90
2973;DHT22;1496;51.404;7.232;2023-03-05T08:41:16;3.40;99.90
2973;DHT22;1496;51.404;7.232;2023-03-05T08:43:42;3.50;99.90
2973;DHT22;1496;51.404;7.232;2023-03-05T08:46:10;3.40;99.90
2973;DHT22;1496;51.404;7.232;2023-03-05T08:48:36;3.30;99.90
2973;DHT22;1496;51.404;7.232;2023-03-05T08:51:22;3.30;99.90
2973;DHT22;1496;51.404;7.232;2023-03-05T08:53:53;3.40;99.90
2973;DHT22;1496;51.404;7.232;2023-03-05T08:56:18;3.40;99.90
2973;DHT22;1496;51.404;7.232;2023-03-05T08:58:44;3.40;99.90
2973;DHT22;1496;51.404;7.232;2023-03-05T09:01:12;3.30;99.90
2973;DHT22;1496;51.404;7.232;2023-03-05T09:03:38;3.30;99.90
2973;DHT22;1496;51.404;7.232;2023-03-05T09:06:08;3.20;99.90
2973;DHT22;1496;51.404;7.232;2023-03-05T09:08:34;3.20;99.90
2973;DHT22;1496;51.404;7.232;2023-03-05T09:11:02;3.10;99.90
2973;DHT22;1496;51.404;7.232;2023-03-05T09:13:27;3.00;99.90
2973;DHT22;1496;51.404;7.232;2023-03-05T09:16:01;2.90;99.90
2973;DHT22;1496;51.404;7.232;2023-03-05T09:18:28;2.80;99.90
2973;DHT22;1496;51.404;7.232;2023-03-05T09:20:55;2.80;1.00
2973;DHT22;1496;51.404;7.232;2023-03-05T09:23:21;2.70;1.00
2973;DHT22;1496;51.404;7.232;2023-03-05T09:25:47;2.70;1.00
2973;DHT22;1496;51.404;7.232;2023-03-05T09:28:14;2.50;1.00
2973;DHT22;1496;51.404;7.232;2023-03-05T09:30:39;2.60;1.00
2973;DHT22;1496;51.404;7.232;2023-03-05T09:33:05;2.80;1.00
2973;DHT22;1496;51.404;7.232;2023-03-05T09:35:35;2.80;1.00
2973;DHT22;1496;51.404;7.232;2023-03-05T09:38:01;2.90;1.00
2973;DHT22;1496;51.404;7.232;2023-03-05T09:40:37;2.90;1.00
2973;DHT22;1496;51.404;7.232;2023-03-05T09:43:37;3.00;1.00
2973;DHT22;1496;51.404;7.232;2023-03-05T09:46:30;3.00;1.00
2973;DHT22;1496;51.404;7.232;2023-03-05T09:49:09;3.10;1.00
2973;DHT22;1496;51.404;7.232;2023-03-05T09:51:39;3.20;1.00
2973;DHT22;1496;51.404;7.232;2023-03-05T09:54:19;3.20;1.00
2973;DHT22;1496;51.404;7.232;2023-03-05T09:56:55;3.30;1.00
2973;DHT22;1496;51.404;7.232;2023-03-05T10:01:58;3.40;1.00
2973;DHT22;1496;51.404;7.232;2023-03-05T10:04:56;3.40;1.00
2973;DHT22;1496;51.404;7.232;2023-03-05T10:07:35;3.50;7.40
2973;DHT22;1496;51.404;7.232;2023-03-05T10:10:12;3.60;1.00
2973;DHT22;1496;51.404;7.232;2023-03-05T10:12:47;3.60;1.00
2973;DHT22;1496;51.404;7.232;2023-03-05T10:15:21;3.70;1.00
2973;DHT22;1496;51.404;7.232;2023-03-05T10:18:13;3.80;38.40
2973;DHT22;1496;51.404;7.232;2023-03-05T10:21:02;3.90;99.70
2973;DHT22;1496;51.404;7.232;2023-03-05T10:23:54;4.10;99.90
2973;DHT22;1496;51.404;7.232;2023-03-05T10:26:54;4.30;41.10
2973;DHT22;1496;51.404;7.232;2023-03-05T10:35:14;4.20;1.00
2973;DHT22;1496;51.404;7.232;2023-03-05T10:38:22;4.30;1.00
2973;DHT22;1496;51.404;7.232;2023-03-05T10:40:54;4.10;1.00
2973;DHT22;1496;51.404;7.232;2023-03-05T10:46:04;4.10;1.00
2973;DHT22;1496;51.404;7.232;2023-03-05T10:48:58;4.20;11.20
2973;DHT22;1496;51.404;7.232;2023-03-05T10:51:53;4.30;1.00
2973;DHT22;1496;51.404;7.232;2023-03-05T10:54:29;4.40;1.00
2973;DHT22;1496;51.404;7.232;2023-03-05T10:59:36;4.60;1.00
2973;DHT22;1496;51.404;7.232;2023-03-05T11:02:07;4.40;1.00
2973;DHT22;1496;51.404;7.232;2023-03-05T11:04:35;4.30;99.90
2973;DHT22;1496;51.404;7.232;2023-03-05T11:07:06;4.20;99.90
2973;DHT22;1496;51.404;7.232;2023-03-05T11:09:32;4.10;99.90
2973;DHT22;1496;51.404;7.232;2023-03-05T11:12:18;4.10;99.90
2973;DHT22;1496;51.404;7.232;2023-03-05T11:14:45;4.20;99.90
2973;DHT22;1496;51.404;7.232;2023-03-05T11:19:48;4.00;99.90
2973;DHT22;1496;51.404;7.232;2023-03-05T11:22:22;3.90;99.90
2973;DHT22;1496;51.404;7.232;2023-03-05T11:27:49;3.80;99.90
2973;DHT22;1496;51.404;7.232;2023-03-05T11:30:18;3.90;99.90
2973;DHT22;1496;51.404;7.232;2023-03-05T11:32:45;3.90;99.90
2973;DHT22;1496;51.404;7.232;2023-03-05T11:35:33;3.80;99.90
2973;DHT22;1496;51.404;7.232;2023-03-05T11:38:04;3.80;99.90
2973;DHT22;1496;51.404;7.232;2023-03-05T11:40:32;3.70;99.90
2973;DHT22;1496;51.404;7.232;2023-03-05T11:43:00;3.80;1.00
2973;DHT22;1496;51.404;7.232;2023-03-05T11:45:28;3.80;1.00
2973;DHT22;1496;51.404;7.232;2023-03-05T11:48:05;3.90;1.00
2973;DHT22;1496;51.404;7.232;2023-03-05T11:50:33;4.00;1.00
2973;DHT22;1496;51.404;7.232;2023-03-05T11:53:10;3.90;99.90
2973;DHT22;1496;51.404;7.232;2023-03-05T11:56:16;3.70;99.90
2973;DHT22;1496;51.404;7.232;2023-03-05T11:58:57;3.80;99.90
2973;DHT22;1496;51.404;7.232;2023-03-05T12:01:27;3.80;99.90
2973;DHT22;1496;51.404;7.232;2023-03-05T12:03:54;3.80;99.90
2973;DHT22;1496;51.404;7.232;2023-03-05T12:09:23;3.90;99.90
2973;DHT22;1496;51.404;7.232;2023-03-05T12:11:55;3.90;99.90
2973;DHT22;1496;51.404;7.232;2023-03-05T12:14:55;4.00;99.90
2973;DHT22;1496;51.404;7.232;2023-03-05T12:23:17;4.20;99.90
2973;DHT22;1496;51.404;7.232;2023-03-05T12:25:55;4.40;99.90
2973;DHT22;1496;51.404;7.232;2023-03-05T12:34:33;4.80;99.90
2973;DHT22;1496;51.404;7.232;2023-03-05T12:36:59;4.80;99.90
2973;DHT22;1496;51.404;7.232;2023-03-05T12:52:52;4.80;99.90
2973;DHT22;1496;51.404;7.232;2023-03-05T12:58:35;4.80;99.90
2973;DHT22;1496;51.404;7.232;2023-03-05T13:01:26;4.80;99.90
2973;DHT22;1496;51.404;7.232;2023-03-05T13:03:56;4.80;99.90
2973;DHT22;1496;51.404;7.232;2023-03-05T13:06:28;4.80;99.90
2973;DHT22;1496;51.404;7.232;2023-03-05T13:09:14;4.90;99.90
2973;DHT22;1496;51.404;7.232;2023-03-05T13:11:42;5.00;99.90
2973;DHT22;1496;51.404;7.232;2023-03-05T13:16:53;5.00;99.90
2973;DHT22;1496;51.404;7.232;2023-03-05T13:19:20;5.00;99.90
2973;DHT22;1496;51.404;7.232;2023-03-05T13:21:59;5.10;99.90
2973;DHT22;1496;51.404;7.232;2023-03-05T13:24:26;5.20;99.90
2973;DHT22;1496;51.404;7.232;2023-03-05T13:26:51;5.20;99.90
2973;DHT22;1496;51.404;7.232;2023-03-05T13:29:18;5.40;99.90
2973;DHT22;1496;51.404;7.232;2023-03-05T13:31:48;5.50;99.90
2973;DHT22;1496;51.404;7.232;2023-03-05T13:34:32;5.40;99.90
2973;DHT22;1496;51.404;7.232;2023-03-05T13:37:06;5.40;99.90
2973;DHT22;1496;51.404;7.232;2023-03-05T13:39:51;5.50;99.90
2973;DHT22;1496;51.404;7.232;2023-03-05T13:42:29;5.50;99.90
2973;DHT22;1496;51.404;7.232;2023-03-05T13:45:19;5.50;99.90
2973;DHT22;1496;51.404;7.232;2023-03-05T13:47:58;5.50;99.90
2973;DHT22;1496;51.404;7.232;2023-03-05T13:50:30;5.50;99.90
2973;DHT22;1496;51.404;7.232;2023-03-05T13:53:31;5.50;99.90
2973;DHT22;1496;51.404;7.232;2023-03-05T13:56:06;5.50;99.90
2973;DHT22;1496;51.404;7.232;2023-03-05T13:58:54;5.50;99.90
2973;DHT22;1496;51.404;7.232;2023-03-05T14:03:57;5.30;99.90
2973;DHT22;1496;51.404;7.232;2023-03-05T14:06:25;5.40;99.90
2973;DHT22;1496;51.404;7.232;2023-03-05T14:08:58;5.20;99.90
2973;DHT22;1496;51.404;7.232;2023-03-05T14:11:26;5.20;99.90
2973;DHT22;1496;51.404;7.232;2023-03-05T14:14:05;5.10;99.90
2973;DHT22;1496;51.404;7.232;2023-03-05T14:16:31;5.20;99.90
2973;DHT22;1496;51.404;7.232;2023-03-05T14:19:02;5.30;99.90
2973;DHT22;1496;51.404;7.232;2023-03-05T14:21:47;5.30;99.90
2973;DHT22;1496;51.404;7.232;2023-03-05T14:24:21;5.30;99.90
2973;DHT22;1496;51.404;7.232;2023-03-05T14:26:58;5.40;99.90
2973;DHT22;1496;51.404;7.232;2023-03-05T14:29:26;5.40;99.90
2973;DHT22;1496;51.404;7.232;2023-03-05T14:31:55;5.50;99.90
2973;DHT22;1496;51.404;7.232;2023-03-05T14:34:31;5.40;99.90
2973;DHT22;1496;51.404;7.232;2023-03-05T14:37:03;5.40;99.90
2973;DHT22;1496;51.404;7.232;2023-03-05T14:39:43;5.40;99.90
2973;DHT22;1496;51.404;7.232;2023-03-05T14:42:30;5.30;99.90
2973;DHT22;1496;51.404;7.232;2023-03-05T14:44:59;5.40;99.90
2973;DHT22;1496;51.404;7.232;2023-03-05T14:47:25;5.50;99.90
2973;DHT22;1496;51.404;7.232;2023-03-05T14:49:52;5.40;99.90
2973;DHT22;1496;51.404;7.232;2023-03-05T14:52:22;5.40;99.90
2973;DHT22;1496;51.404;7.232;2023-03-05T14:54:49;5.40;99.90
2973;DHT22;1496;51.404;7.232;2023-03-05T14:57:22;5.50;99.90
2973;DHT22;1496;51.404;7.232;2023-03-05T14:59:48;5.60;99.90
2973;DHT22;1496;51.404;7.232;2023-03-05T15:02:20;5.60;99.90
2973;DHT22;1496;51.404;7.232;2023-03-05T15:04:46;5.60;99.90
2973;DHT22;1496;51.404;7.232;2023-03-05T15:07:40;5.60;99.90
2973;DHT22;1496;51.404;7.232;2023-03-05T15:10:06;5.50;99.90
2973;DHT22;1496;51.404;7.232;2023-03-05T15:12:33;5.50;99.90
2973;DHT22;1496;51.404;7.232;2023-03-05T15:14:59;5.50;99.90
2973;DHT22;1496;51.404;7.232;2023-03-05T15:17:36;5.50;99.90
2973;DHT22;1496;51.404;7.232;2023-03-05T15:20:05;5.40;99.90
2973;DHT22;1496;51.404;7.232;2023-03-05T15:22:33;5.50;99.90
2973;DHT22;1496;51.404;7.232;2023-03-05T15:24:58;5.50;99.90
2973;DHT22;1496;51.404;7.232;2023-03-05T15:27:24;5.30;99.90
2973;DHT22;1496;51.404;7.232;2023-03-05T15:29:50;5.30;99.90
2973;DHT22;1496;51.404;7.232;2023-03-05T15:32:16;5.30;99.90
2973;DHT22;1496;51.404;7.232;2023-03-05T15:34:41;5.20;99.90
2973;DHT22;1496;51.404;7.232;2023-03-05T15:37:07;5.20;99.90
2973;DHT22;1496;51.404;7.232;2023-03-05T15:39:33;5.10;99.90
2973;DHT22;1496;51.404;7.232;2023-03-05T15:41:59;5.20;99.90
2973;DHT22;1496;51.404;7.232;2023-03-05T15:44:25;5.20;99.90
2973;DHT22;1496;51.404;7.232;2023-03-05T15:46:51;5.30;99.90
2973;DHT22;1496;51.404;7.232;2023-03-05T15:49:17;5.20;99.90
2973;DHT22;1496;51.404;7.232;2023-03-05T15:51:42;5.10;99.90
2973;DHT22;1496;51.404;7.232;2023-03-05T15:54:08;5.00;99.90
2973;DHT22;1496;51.404;7.232;2023-03-05T15:56:34;5.00;99.90
2973;DHT22;1496;51.404;7.232;2023-03-05T15:59:00;5.00;99.90
2973;DHT22;1496;51.404;7.232;2023-03-05T16:01:26;5.00;99.90
2973;DHT22;1496;51.404;7.232;2023-03-05T16:03:52;5.10;99.90
2973;DHT22;1496;51.404;7.232;2023-03-05T16:06:20;4.90;99.90
2973;DHT22;1496;51.404;7.232;2023-03-05T16:08:54;4.90;99.90
2973;DHT22;1496;51.404;7.232;2023-03-05T16:11:21;5.00;99.90
2973;DHT22;1496;51.404;7.232;2023-03-05T16:13:47;5.00;99.90
2973;DHT22;1496;51.404;7.232;2023-03-05T16:16:15;5.00;99.90
2973;DHT22;1496;51.404;7.232;2023-03-05T16:18:42;5.00;99.90
2973;DHT22;1496;51.404;7.232;2023-03-05T16:21:10;5.00;99.90
2973;DHT22;1496;51.404;7.232;2023-03-05T16:23:36;4.90;99.90
2973;DHT22;1496;51.404;7.232;2023-03-05T16:26:01;4.90;99.90
2973;DHT22;1496;51.404;7.232;2023-03-05T16:28:27;4.80;99.90
2973;DHT22;1496;51.404;7.232;2023-03-05T16:30:56;4.80;99.90
2973;DHT22;1496;51.404;7.232;2023-03-05T16:33:22;4.80;99.90
2973;DHT22;1496;51.404;7.232;2023-03-05T16:35:48;4.70;99.90
2973;DHT22;1496;51.404;7.232;2023-03-05T16:38:14;4.70;99.90
2973;DHT22;1496;51.404;7.232;2023-03-05T16:40:40;4.70;99.90
2973;DHT22;1496;51.404;7.232;2023-03-05T16:43:06;4.70;99.90
2973;DHT22;1496;51.404;7.232;2023-03-05T16:45:32;4.70;99.90
2973;DHT22;1496;51.404;7.232;2023-03-05T16:47:58;4.70;99.90
2973;DHT22;1496;51.404;7.232;2023-03-05T16:50:23;4.60;99.90
2973;DHT22;1496;51.404;7.232;2023-03-05T16:52:50;4.60;99.90
2973;DHT22;1496;51.404;7.232;2023-03-05T16:55:15;4.60;99.90
2973;DHT22;1496;51.404;7.232;2023-03-05T16:57:42;4.60;99.90
2973;DHT22;1496;51.404;7.232;2023-03-05T17:00:08;4.60;99.90
2973;DHT22;1496;51.404;7.232;2023-03-05T17:02:36;4.50;99.90
2973;DHT22;1496;51.404;7.232;2023-03-05T17:05:03;4.50;99.90
2973;DHT22;1496;51.404;7.232;2023-03-05T17:07:28;4.40;99.90
2973;DHT22;1496;51.404;7.232;2023-03-05T17:09:54;4.50;99.90
2973;DHT22;1496;51.404;7.232;2023-03-05T17:12:21;4.50;99.90
2973;DHT22;1496;51.404;7.232;2023-03-05T17:14:46;4.50;99.90
2973;DHT22;1496;51.404;7.232;2023-03-05T17:17:13;4.40;99.90
2973;DHT22;1496;51.404;7.232;2023-03-05T17:19:38;4.40;99.90
2973;DHT22;1496;51.404;7.232;2023-03-05T17:22:04;4.40;99.90
2973;DHT22;1496;51.404;7.232;2023-03-05T17:24:30;4.40;99.90
2973;DHT22;1496;51.404;7.232;2023-03-05T17:26:58;4.40;99.90
2973;DHT22;1496;51.404;7.232;2023-03-05T17:29:24;4.40;99.90
2973;DHT22;1496;51.404;7.232;2023-03-05T17:31:51;4.40;99.90